sensor_id;sensor_type;location;lat;lon;timestamp;noise_LAeq;noise_LA_min;noise_LA_max;noise_LA01;noise_LA95
40465;Laerm;30489;48.982;8.394;2023-02-11T00:01:28;40.13;38.52;41.46;;
40465;Laerm;30489;48.982;8.394;2023-02-11T00:03:38;40.14;38.67;41.46;;
40465;Laerm;30489;48.982;8.394;2023-02-11T00:05:59;40.14;38.21;41.53;;
40465;Laerm;30489;48.982;8.394;2023-02-11T00:08:09;40.13;38.52;41.53;;
40465;Laerm;30489;48.982;8.394;2023-02-11T00:10:25;40.11;38.21;41.38;;
40465;Laerm;30489;48.982;8.394;2023-02-11T00:12:36;40.10;38.21;41.68;;
40465;Laerm;30489;48.982;8.394;2023-02-11T00:14:47;40.12;38.52;41.68;;
40465;Laerm;30489;48.982;8.394;2023-02-11T00:16:57;40.14;38.52;41.61;;
40465;Laerm;30489;48.982;8.394;2023-02-11T00:19:08;40.11;38.37;41.46;;
40465;Laerm;30489;48.982;8.394;2023-02-11T00:21:19;40.12;38.67;41.61;;
40465;Laerm;30489;48.982;8.394;2023-02-11T00:23:30;40.11;38.21;41.38;;
40465;Laerm;30489;48.982;8.394;2023-02-11T00:25:41;40.11;38.52;41.46;;
40465;Laerm;30489;48.982;8.394;2023-02-11T00:27:51;40.13;38.37;41.68;;
40465;Laerm;30489;48.982;8.394;2023-02-11T00:30:02;40.10;38.32;41.46;;
40465;Laerm;30489;48.982;8.394;2023-02-11T00:32:14;40.12;38.52;41.61;;
40465;Laerm;30489;48.982;8.394;2023-02-11T00:34:24;40.08;38.37;41.46;;
40465;Laerm;30489;48.982;8.394;2023-02-11T00:36:34;40.07;38.52;41.46;;
40465;Laerm;30489;48.982;8.394;2023-02-11T00:38:45;40.06;38.37;41.30;;
40465;Laerm;30489;48.982;8.394;2023-02-11T00:40:55;40.04;38.37;41.46;;
40465;Laerm;30489;48.982;8.394;2023-02-11T00:43:06;40.04;38.37;41.53;;
40465;Laerm;30489;48.982;8.394;2023-02-11T00:45:16;40.02;37.32;41.46;;
40465;Laerm;30489;48.982;8.394;2023-02-11T00:47:26;40.02;38.37;41.30;;
40465;Laerm;30489;48.982;8.394;2023-02-11T00:49:37;39.98;38.21;41.30;;
40465;Laerm;30489;48.982;8.394;2023-02-11T00:51:49;39.94;38.05;41.48;;
40465;Laerm;30489;48.982;8.394;2023-02-11T00:53:59;39.94;38.21;41.53;;
40465;Laerm;30489;48.982;8.394;2023-02-11T00:56:09;39.93;38.37;41.46;;
40465;Laerm;30489;48.982;8.394;2023-02-11T00:58:20;39.94;38.21;41.53;;
40465;Laerm;30489;48.982;8.394;2023-02-11T01:00:31;39.92;38.21;41.30;;
40465;Laerm;30489;48.982;8.394;2023-02-11T01:02:41;39.94;37.88;41.53;;
40465;Laerm;30489;48.982;8.394;2023-02-11T01:04:51;39.91;38.05;41.14;;
40465;Laerm;30489;48.982;8.394;2023-02-11T01:07:02;39.88;38.05;41.38;;
40465;Laerm;30489;48.982;8.394;2023-02-11T01:09:12;39.88;37.88;41.30;;
40465;Laerm;30489;48.982;8.394;2023-02-11T01:11:22;39.87;38.21;41.38;;
40465;Laerm;30489;48.982;8.394;2023-02-11T01:13:34;39.88;38.05;41.30;;
40465;Laerm;30489;48.982;8.394;2023-02-11T01:15:46;39.88;38.05;41.38;;
40465;Laerm;30489;48.982;8.394;2023-02-11T01:17:56;39.87;38.05;41.22;;
40465;Laerm;30489;48.982;8.394;2023-02-11T01:20:07;39.88;38.37;44.51;;
40465;Laerm;30489;48.982;8.394;2023-02-11T01:22:20;39.87;38.05;45.83;;
40465;Laerm;30489;48.982;8.394;2023-02-11T01:24:31;39.88;38.05;41.30;;
40465;Laerm;30489;48.982;8.394;2023-02-11T01:26:41;39.88;38.21;41.38;;
40465;Laerm;30489;48.982;8.394;2023-02-11T01:28:52;39.89;38.18;41.30;;
40465;Laerm;30489;48.982;8.394;2023-02-11T01:31:02;39.90;38.21;41.61;;
40465;Laerm;30489;48.982;8.394;2023-02-11T01:33:13;39.88;38.05;41.38;;
40465;Laerm;30489;48.982;8.394;2023-02-11T01:35:23;39.88;38.05;41.30;;
40465;Laerm;30489;48.982;8.394;2023-02-11T01:37:34;39.92;38.52;41.30;;
40465;Laerm;30489;48.982;8.394;2023-02-11T01:39:44;39.89;38.37;41.46;;
40465;Laerm;30489;48.982;8.394;2023-02-11T01:41:55;39.90;38.21;41.30;;
40465;Laerm;30489;48.982;8.394;2023-02-11T01:44:25;39.88;38.32;41.22;;
40465;Laerm;30489;48.982;8.394;2023-02-11T01:46:36;39.88;38.05;42.74;;
40465;Laerm;30489;48.982;8.394;2023-02-11T01:48:47;39.90;38.05;41.38;;
40465;Laerm;30489;48.982;8.394;2023-02-11T01:51:02;39.88;38.37;41.30;;
40465;Laerm;30489;48.982;8.394;2023-02-11T01:53:14;39.87;38.05;41.38;;
40465;Laerm;30489;48.982;8.394;2023-02-11T01:55:43;39.87;38.05;41.38;;
40465;Laerm;30489;48.982;8.394;2023-02-11T01:58:13;39.87;38.05;41.38;;
40465;Laerm;30489;48.982;8.394;2023-02-11T02:00:24;39.90;38.21;41.46;;
40465;Laerm;30489;48.982;8.394;2023-02-11T02:04:51;39.90;37.52;41.53;;
40465;Laerm;30489;48.982;8.394;2023-02-11T02:07:04;39.90;37.70;41.22;;
40465;Laerm;30489;48.982;8.394;2023-02-11T02:09:16;39.93;38.37;41.30;;
40465;Laerm;30489;48.982;8.394;2023-02-11T02:11:29;39.93;38.37;41.53;;
40465;Laerm;30489;48.982;8.394;2023-02-11T02:13:39;39.93;38.21;41.26;;
40465;Laerm;30489;48.982;8.394;2023-02-11T02:15:54;39.96;38.05;41.46;;
40465;Laerm;30489;48.982;8.394;2023-02-11T02:18:21;39.93;38.37;41.46;;
40465;Laerm;30489;48.982;8.394;2023-02-11T02:22:52;39.92;38.37;41.38;;
40465;Laerm;30489;48.982;8.394;2023-02-11T02:25:17;39.92;37.88;41.30;;
40465;Laerm;30489;48.982;8.394;2023-02-11T02:27:54;39.92;38.05;41.30;;
40465;Laerm;30489;48.982;8.394;2023-02-11T02:39:52;39.89;38.05;41.30;;
40465;Laerm;30489;48.982;8.394;2023-02-11T02:42:02;39.86;37.88;41.30;;
40465;Laerm;30489;48.982;8.394;2023-02-11T02:44:13;39.86;38.21;41.38;;
40465;Laerm;30489;48.982;8.394;2023-02-11T02:46:25;39.83;37.88;41.46;;
40465;Laerm;30489;48.982;8.394;2023-02-11T02:48:36;39.83;37.88;41.19;;
40465;Laerm;30489;48.982;8.394;2023-02-11T02:50:46;39.85;38.05;41.22;;
40465;Laerm;30489;48.982;8.394;2023-02-11T03:02:32;39.89;38.18;41.30;;
40465;Laerm;30489;48.982;8.394;2023-02-11T03:04:54;39.89;38.21;41.46;;
40465;Laerm;30489;48.982;8.394;2023-02-11T03:11:36;39.82;38.05;41.22;;
40465;Laerm;30489;48.982;8.394;2023-02-11T03:13:47;39.82;37.88;41.22;;
40465;Laerm;30489;48.982;8.394;2023-02-11T03:15:59;39.81;38.05;41.30;;
40465;Laerm;30489;48.982;8.394;2023-02-11T03:18:13;39.81;38.21;41.38;;
40465;Laerm;30489;48.982;8.394;2023-02-11T03:20:25;39.83;37.88;41.22;;
40465;Laerm;30489;48.982;8.394;2023-02-11T03:22:42;39.82;38.21;41.46;;
40465;Laerm;30489;48.982;8.394;2023-02-11T03:24:54;39.85;38.02;41.22;;
40465;Laerm;30489;48.982;8.394;2023-02-11T03:27:14;39.83;38.21;41.14;;
40465;Laerm;30489;48.982;8.394;2023-02-11T03:29:38;39.84;38.21;41.46;;
40465;Laerm;30489;48.982;8.394;2023-02-11T03:34:18;39.86;38.37;41.38;;
40465;Laerm;30489;48.982;8.394;2023-02-11T03:36:40;39.88;38.02;41.38;;
40465;Laerm;30489;48.982;8.394;2023-02-11T03:38:55;39.87;38.21;41.38;;
40465;Laerm;30489;48.982;8.394;2023-02-11T03:41:07;39.88;38.05;41.14;;
40465;Laerm;30489;48.982;8.394;2023-02-11T03:43:30;39.85;38.05;41.22;;
40465;Laerm;30489;48.982;8.394;2023-02-11T03:45:42;39.86;37.88;41.30;;
40465;Laerm;30489;48.982;8.394;2023-02-11T03:48:15;39.87;37.70;41.53;;
40465;Laerm;30489;48.982;8.394;2023-02-11T03:50:23;39.88;38.05;41.30;;
40465;Laerm;30489;48.982;8.394;2023-02-11T03:52:36;39.89;38.21;41.46;;
40465;Laerm;30489;48.982;8.394;2023-02-11T03:54:47;39.89;38.37;41.38;;
40465;Laerm;30489;48.982;8.394;2023-02-11T03:57:00;39.88;38.21;41.30;;
40465;Laerm;30489;48.982;8.394;2023-02-11T03:59:11;39.86;37.88;41.38;;
40465;Laerm;30489;48.982;8.394;2023-02-11T04:01:21;39.83;37.88;41.30;;
40465;Laerm;30489;48.982;8.394;2023-02-11T04:03:31;39.85;38.21;41.30;;
40465;Laerm;30489;48.982;8.394;2023-02-11T04:05:42;39.85;38.21;41.46;;
40465;Laerm;30489;48.982;8.394;2023-02-11T04:07:52;39.85;38.21;41.61;;
40465;Laerm;30489;48.982;8.394;2023-02-11T04:10:02;39.86;38.21;41.46;;
40465;Laerm;30489;48.982;8.394;2023-02-11T04:12:13;39.88;37.88;41.22;;
40465;Laerm;30489;48.982;8.394;2023-02-11T04:14:23;39.87;38.05;41.30;;
40465;Laerm;30489;48.982;8.394;2023-02-11T04:16:33;39.87;38.05;41.30;;
40465;Laerm;30489;48.982;8.394;2023-02-11T04:18:43;39.87;38.37;41.30;;
40465;Laerm;30489;48.982;8.394;2023-02-11T04:20:54;39.84;37.70;41.38;;
40465;Laerm;30489;48.982;8.394;2023-02-11T04:23:04;39.86;38.05;41.22;;
40465;Laerm;30489;48.982;8.394;2023-02-11T04:25:14;39.86;38.05;41.22;;
40465;Laerm;30489;48.982;8.394;2023-02-11T04:27:24;39.85;38.21;41.22;;
40465;Laerm;30489;48.982;8.394;2023-02-11T04:29:35;39.84;38.21;41.30;;
40465;Laerm;30489;48.982;8.394;2023-02-11T04:31:45;39.85;37.88;41.30;;
40465;Laerm;30489;48.982;8.394;2023-02-11T04:33:55;39.85;38.05;41.61;;
40465;Laerm;30489;48.982;8.394;2023-02-11T04:36:06;39.86;38.05;41.22;;
40465;Laerm;30489;48.982;8.394;2023-02-11T04:38:16;39.87;38.18;41.38;;
40465;Laerm;30489;48.982;8.394;2023-02-11T04:40:26;39.86;37.70;41.38;;
40465;Laerm;30489;48.982;8.394;2023-02-11T04:42:37;39.88;38.05;41.30;;
40465;Laerm;30489;48.982;8.394;2023-02-11T04:44:47;39.91;38.21;41.38;;
40465;Laerm;30489;48.982;8.394;2023-02-11T04:46:57;39.87;38.05;41.38;;
40465;Laerm;30489;48.982;8.394;2023-02-11T04:49:09;39.89;38.21;41.53;;
40465;Laerm;30489;48.982;8.394;2023-02-11T04:51:21;39.89;38.37;41.30;;
40465;Laerm;30489;48.982;8.394;2023-02-11T04:53:31;39.88;38.37;41.38;;
40465;Laerm;30489;48.982;8.394;2023-02-11T04:55:42;39.89;38.05;41.30;;
40465;Laerm;30489;48.982;8.394;2023-02-11T04:57:52;39.89;38.05;41.30;;
40465;Laerm;30489;48.982;8.394;2023-02-11T05:00:04;39.87;38.05;41.38;;
40465;Laerm;30489;48.982;8.394;2023-02-11T05:02:14;39.90;37.70;41.22;;
40465;Laerm;30489;48.982;8.394;2023-02-11T05:04:25;39.91;38.05;41.46;;
40465;Laerm;30489;48.982;8.394;2023-02-11T05:06:36;39.92;38.32;41.61;;
40465;Laerm;30489;48.982;8.394;2023-02-11T05:08:47;39.90;38.21;41.22;;
40465;Laerm;30489;48.982;8.394;2023-02-11T05:10:57;39.91;38.05;41.46;;
40465;Laerm;30489;48.982;8.394;2023-02-11T05:13:07;39.91;38.05;41.53;;
40465;Laerm;30489;48.982;8.394;2023-02-11T05:15:18;39.92;38.37;41.46;;
40465;Laerm;30489;48.982;8.394;2023-02-11T05:17:28;39.91;38.05;41.30;;
40465;Laerm;30489;48.982;8.394;2023-02-11T05:19:38;39.94;38.05;41.30;;
40465;Laerm;30489;48.982;8.394;2023-02-11T05:21:50;39.91;38.21;41.30;;
40465;Laerm;30489;48.982;8.394;2023-02-11T05:24:02;39.90;38.05;41.46;;
40465;Laerm;30489;48.982;8.394;2023-02-11T05:26:12;39.89;38.32;41.14;;
40465;Laerm;30489;48.982;8.394;2023-02-11T05:28:22;39.90;37.70;41.38;;
40465;Laerm;30489;48.982;8.394;2023-02-11T05:30:33;39.91;38.05;41.22;;
40465;Laerm;30489;48.982;8.394;2023-02-11T05:32:43;39.91;38.21;41.48;;
40465;Laerm;30489;48.982;8.394;2023-02-11T05:34:53;39.91;38.21;41.38;;
40465;Laerm;30489;48.982;8.394;2023-02-11T05:37:03;39.94;38.05;41.38;;
40465;Laerm;30489;48.982;8.394;2023-02-11T05:39:14;39.93;38.21;41.38;;
40465;Laerm;30489;48.982;8.394;2023-02-11T05:41:24;39.91;38.05;41.33;;
40465;Laerm;30489;48.982;8.394;2023-02-11T05:43:34;39.93;38.37;41.30;;
40465;Laerm;30489;48.982;8.394;2023-02-11T05:45:45;39.94;38.21;41.46;;
40465;Laerm;30489;48.982;8.394;2023-02-11T05:47:56;39.95;37.88;41.38;;
40465;Laerm;30489;48.982;8.394;2023-02-11T05:50:06;39.96;38.05;41.30;;
40465;Laerm;30489;48.982;8.394;2023-02-11T05:52:16;39.97;38.21;41.55;;
40465;Laerm;30489;48.982;8.394;2023-02-11T05:54:27;39.96;38.21;41.30;;
40465;Laerm;30489;48.982;8.394;2023-02-11T05:56:37;39.96;38.37;41.46;;
40465;Laerm;30489;48.982;8.394;2023-02-11T05:58:47;39.99;38.52;41.53;;
40465;Laerm;30489;48.982;8.394;2023-02-11T06:00:57;40.00;38.21;41.30;;
40465;Laerm;30489;48.982;8.394;2023-02-11T06:03:08;39.98;38.37;41.22;;
40465;Laerm;30489;48.982;8.394;2023-02-11T06:05:18;39.96;38.21;41.75;;
40465;Laerm;30489;48.982;8.394;2023-02-11T06:07:29;39.96;38.21;41.46;;
40465;Laerm;30489;48.982;8.394;2023-02-11T06:09:39;39.96;38.21;41.46;;
40465;Laerm;30489;48.982;8.394;2023-02-11T06:11:49;39.96;38.05;41.30;;
40465;Laerm;30489;48.982;8.394;2023-02-11T06:13:59;39.94;38.21;41.61;;
40465;Laerm;30489;48.982;8.394;2023-02-11T06:16:10;39.94;37.88;41.61;;
40465;Laerm;30489;48.982;8.394;2023-02-11T06:18:20;39.91;38.37;41.33;;
40465;Laerm;30489;48.982;8.394;2023-02-11T06:20:30;39.91;38.21;41.38;;
40465;Laerm;30489;48.982;8.394;2023-02-11T06:22:41;39.91;37.88;41.46;;
40465;Laerm;30489;48.982;8.394;2023-02-11T06:24:51;39.91;38.21;41.30;;
40465;Laerm;30489;48.982;8.394;2023-02-11T06:27:02;39.92;38.21;41.30;;
40465;Laerm;30489;48.982;8.394;2023-02-11T06:29:12;39.92;38.05;41.22;;
40465;Laerm;30489;48.982;8.394;2023-02-11T06:31:23;39.94;38.21;41.68;;
40465;Laerm;30489;48.982;8.394;2023-02-11T06:33:33;39.93;38.21;41.53;;
40465;Laerm;30489;48.982;8.394;2023-02-11T06:35:44;39.94;38.21;41.53;;
40465;Laerm;30489;48.982;8.394;2023-02-11T06:37:54;39.92;38.21;41.46;;
40465;Laerm;30489;48.982;8.394;2023-02-11T06:40:04;39.93;37.88;41.61;;
40465;Laerm;30489;48.982;8.394;2023-02-11T06:42:15;39.92;38.21;41.53;;
40465;Laerm;30489;48.982;8.394;2023-02-11T06:44:25;39.91;37.88;41.38;;
40465;Laerm;30489;48.982;8.394;2023-02-11T06:46:35;39.92;38.21;41.61;;
40465;Laerm;30489;48.982;8.394;2023-02-11T06:48:46;39.93;38.05;41.46;;
40465;Laerm;30489;48.982;8.394;2023-02-11T06:50:56;39.93;38.21;41.53;;
40465;Laerm;30489;48.982;8.394;2023-02-11T06:53:10;39.91;38.37;41.38;;
40465;Laerm;30489;48.982;8.394;2023-02-11T06:55:20;39.94;38.37;41.30;;
40465;Laerm;30489;48.982;8.394;2023-02-11T06:57:30;39.94;38.21;41.61;;
40465;Laerm;30489;48.982;8.394;2023-02-11T06:59:41;39.95;38.37;41.30;;
40465;Laerm;30489;48.982;8.394;2023-02-11T07:01:51;39.93;38.05;41.30;;
40465;Laerm;30489;48.982;8.394;2023-02-11T07:04:01;39.94;38.37;41.33;;
40465;Laerm;30489;48.982;8.394;2023-02-11T07:06:13;39.96;38.37;41.30;;
40465;Laerm;30489;48.982;8.394;2023-02-11T07:08:23;39.95;38.21;41.38;;
40465;Laerm;30489;48.982;8.394;2023-02-11T07:10:34;39.96;38.37;41.53;;
40465;Laerm;30489;48.982;8.394;2023-02-11T07:12:44;39.97;38.37;41.61;;
40465;Laerm;30489;48.982;8.394;2023-02-11T07:14:55;39.99;38.37;41.38;;
40465;Laerm;30489;48.982;8.394;2023-02-11T07:17:05;40.00;38.37;41.30;;
40465;Laerm;30489;48.982;8.394;2023-02-11T07:19:15;40.00;38.05;41.38;;
40465;Laerm;30489;48.982;8.394;2023-02-11T07:21:26;39.99;38.21;41.38;;
40465;Laerm;30489;48.982;8.394;2023-02-11T07:23:36;39.99;38.37;41.30;;
40465;Laerm;30489;48.982;8.394;2023-02-11T07:25:47;40.01;38.52;41.46;;
40465;Laerm;30489;48.982;8.394;2023-02-11T07:27:57;40.00;38.21;41.53;;
40465;Laerm;30489;48.982;8.394;2023-02-11T07:30:07;40.04;38.52;41.68;;
40465;Laerm;30489;48.982;8.394;2023-02-11T07:32:18;40.01;38.37;41.30;;
40465;Laerm;30489;48.982;8.394;2023-02-11T07:34:28;40.00;38.37;41.53;;
40465;Laerm;30489;48.982;8.394;2023-02-11T07:36:39;39.99;38.05;41.68;;
40465;Laerm;30489;48.982;8.394;2023-02-11T07:38:49;40.01;38.37;41.68;;
40465;Laerm;30489;48.982;8.394;2023-02-11T07:41:00;40.03;38.21;41.38;;
40465;Laerm;30489;48.982;8.394;2023-02-11T07:43:10;40.00;38.21;41.61;;
40465;Laerm;30489;48.982;8.394;2023-02-11T07:45:20;40.01;38.37;41.38;;
40465;Laerm;30489;48.982;8.394;2023-02-11T07:47:32;40.03;38.52;41.46;;
40465;Laerm;30489;48.982;8.394;2023-02-11T07:49:43;40.02;38.21;41.30;;
40465;Laerm;30489;48.982;8.394;2023-02-11T07:51:54;40.03;38.21;41.61;;
40465;Laerm;30489;48.982;8.394;2023-02-11T07:54:04;40.04;38.37;41.46;;
40465;Laerm;30489;48.982;8.394;2023-02-11T07:56:15;40.05;38.52;41.38;;
40465;Laerm;30489;48.982;8.394;2023-02-11T07:58:25;40.07;38.37;41.53;;
40465;Laerm;30489;48.982;8.394;2023-02-11T08:00:36;40.07;38.52;41.53;;
40465;Laerm;30489;48.982;8.394;2023-02-11T08:02:46;40.07;38.52;41.46;;
40465;Laerm;30489;48.982;8.394;2023-02-11T08:04:57;40.09;38.37;41.53;;
40465;Laerm;30489;48.982;8.394;2023-02-11T08:07:07;40.11;38.52;41.30;;
40465;Laerm;30489;48.982;8.394;2023-02-11T08:09:17;40.11;38.37;41.48;;
40465;Laerm;30489;48.982;8.394;2023-02-11T08:11:28;40.11;38.21;41.68;;
40465;Laerm;30489;48.982;8.394;2023-02-11T08:13:38;40.12;38.52;41.46;;
40465;Laerm;30489;48.982;8.394;2023-02-11T08:15:48;40.13;38.37;41.61;;
40465;Laerm;30489;48.982;8.394;2023-02-11T08:17:58;40.13;38.52;41.46;;
40465;Laerm;30489;48.982;8.394;2023-02-11T08:20:09;40.15;38.37;41.53;;
40465;Laerm;30489;48.982;8.394;2023-02-11T08:22:19;40.15;38.52;41.53;;
40465;Laerm;30489;48.982;8.394;2023-02-11T08:24:29;40.16;38.37;41.53;;
40465;Laerm;30489;48.982;8.394;2023-02-11T08:26:39;40.16;38.52;41.53;;
40465;Laerm;30489;48.982;8.394;2023-02-11T08:28:50;40.18;38.52;41.53;;
40465;Laerm;30489;48.982;8.394;2023-02-11T08:31:08;40.19;38.52;41.53;;
40465;Laerm;30489;48.982;8.394;2023-02-11T08:33:19;40.20;38.81;41.38;;
40465;Laerm;30489;48.982;8.394;2023-02-11T08:35:29;40.20;38.81;41.68;;
40465;Laerm;30489;48.982;8.394;2023-02-11T08:37:39;40.20;38.37;41.46;;
40465;Laerm;30489;48.982;8.394;2023-02-11T08:39:49;40.21;38.52;41.68;;
40465;Laerm;30489;48.982;8.394;2023-02-11T08:42:00;40.22;38.67;41.55;;
40465;Laerm;30489;48.982;8.394;2023-02-11T08:44:10;40.22;38.37;41.68;;
40465;Laerm;30489;48.982;8.394;2023-02-11T08:46:21;40.23;38.21;41.61;;
40465;Laerm;30489;48.982;8.394;2023-02-11T08:48:31;40.25;38.52;41.89;;
40465;Laerm;30489;48.982;8.394;2023-02-11T08:50:42;40.27;38.67;41.68;;
40465;Laerm;30489;48.982;8.394;2023-02-11T08:52:52;40.29;38.67;41.75;;
40465;Laerm;30489;48.982;8.394;2023-02-11T08:55:02;40.31;38.95;41.82;;
40465;Laerm;30489;48.982;8.394;2023-02-11T08:57:13;40.32;38.81;41.68;;
40465;Laerm;30489;48.982;8.394;2023-02-11T08:59:23;40.35;38.81;41.61;;
40465;Laerm;30489;48.982;8.394;2023-02-11T09:01:34;40.37;38.67;41.96;;
40465;Laerm;30489;48.982;8.394;2023-02-11T09:03:44;40.38;38.52;41.82;;
40465;Laerm;30489;48.982;8.394;2023-02-11T09:05:54;40.40;38.95;41.75;;
40465;Laerm;30489;48.982;8.394;2023-02-11T09:08:05;40.42;38.95;41.96;;
40465;Laerm;30489;48.982;8.394;2023-02-11T09:10:16;40.41;38.99;41.89;;
40465;Laerm;30489;48.982;8.394;2023-02-11T09:12:26;40.42;38.95;41.61;;
40465;Laerm;30489;48.982;8.394;2023-02-11T09:14:36;40.43;38.95;41.68;;
40465;Laerm;30489;48.982;8.394;2023-02-11T09:16:47;40.42;38.81;41.68;;
40465;Laerm;30489;48.982;8.394;2023-02-11T09:18:59;40.42;38.81;41.61;;
40465;Laerm;30489;48.982;8.394;2023-02-11T09:21:12;40.42;38.81;41.82;;
40465;Laerm;30489;48.982;8.394;2023-02-11T09:23:22;40.46;38.95;41.89;;
40465;Laerm;30489;48.982;8.394;2023-02-11T09:25:33;40.50;38.95;41.89;;
40465;Laerm;30489;48.982;8.394;2023-02-11T09:27:43;40.53;39.08;41.89;;
40465;Laerm;30489;48.982;8.394;2023-02-11T09:29:53;40.54;39.08;41.75;;
40465;Laerm;30489;48.982;8.394;2023-02-11T09:32:03;40.55;38.95;41.82;;
40465;Laerm;30489;48.982;8.394;2023-02-11T09:34:14;40.59;38.67;41.75;;
40465;Laerm;30489;48.982;8.394;2023-02-11T09:36:26;40.65;39.08;41.82;;
40465;Laerm;30489;48.982;8.394;2023-02-11T09:38:37;40.65;39.21;42.09;;
40465;Laerm;30489;48.982;8.394;2023-02-11T09:40:47;40.71;39.08;41.96;;
40465;Laerm;30489;48.982;8.394;2023-02-11T09:43:06;40.76;39.34;41.96;;
40465;Laerm;30489;48.982;8.394;2023-02-11T09:45:25;40.78;39.21;42.03;;
40465;Laerm;30489;48.982;8.394;2023-02-11T09:47:38;40.83;39.58;42.16;;
40465;Laerm;30489;48.982;8.394;2023-02-11T09:50:13;40.84;39.46;42.16;;
40465;Laerm;30489;48.982;8.394;2023-02-11T09:54:42;40.91;39.34;42.22;;
40465;Laerm;30489;48.982;8.394;2023-02-11T09:56:58;40.97;39.70;42.22;;
40465;Laerm;30489;48.982;8.394;2023-02-11T09:59:11;41.03;39.58;42.29;;
40465;Laerm;30489;48.982;8.394;2023-02-11T10:01:41;41.10;39.70;42.35;;
40465;Laerm;30489;48.982;8.394;2023-02-11T10:03:56;41.15;40.03;42.22;;
40465;Laerm;30489;48.982;8.394;2023-02-11T10:06:13;41.11;39.70;42.22;;
40465;Laerm;30489;48.982;8.394;2023-02-11T10:08:31;41.11;39.70;42.22;;
40465;Laerm;30489;48.982;8.394;2023-02-11T10:10:46;41.14;39.68;42.35;;
40465;Laerm;30489;48.982;8.394;2023-02-11T10:15:44;41.17;39.92;42.29;;
40465;Laerm;30489;48.982;8.394;2023-02-11T10:20:24;41.14;39.70;42.41;;
40465;Laerm;30489;48.982;8.394;2023-02-11T10:22:41;41.20;39.92;42.35;;
40465;Laerm;30489;48.982;8.394;2023-02-11T10:24:55;41.20;39.81;42.30;;
40465;Laerm;30489;48.982;8.394;2023-02-11T10:27:11;41.19;39.92;42.22;;
40465;Laerm;30489;48.982;8.394;2023-02-11T10:29:35;41.18;39.81;42.47;;
40465;Laerm;30489;48.982;8.394;2023-02-11T10:31:47;41.19;39.92;42.35;;
40465;Laerm;30489;48.982;8.394;2023-02-11T10:34:03;41.20;39.81;42.47;;
40465;Laerm;30489;48.982;8.394;2023-02-11T10:36:15;41.19;39.81;42.29;;
40465;Laerm;30489;48.982;8.394;2023-02-11T10:38:26;41.24;40.03;42.41;;
40465;Laerm;30489;48.982;8.394;2023-02-11T10:40:36;41.25;39.99;42.35;;
40465;Laerm;30489;48.982;8.394;2023-02-11T10:42:48;41.28;40.03;42.41;;
40465;Laerm;30489;48.982;8.394;2023-02-11T10:44:59;41.26;40.03;42.36;;
40465;Laerm;30489;48.982;8.394;2023-02-11T10:47:16;41.24;39.58;42.41;;
40465;Laerm;30489;48.982;8.394;2023-02-11T10:49:32;41.24;39.99;42.41;;
40465;Laerm;30489;48.982;8.394;2023-02-11T10:51:43;41.25;40.03;42.41;;
40465;Laerm;30489;48.982;8.394;2023-02-11T10:56:18;41.28;40.03;42.41;;
40465;Laerm;30489;48.982;8.394;2023-02-11T10:58:30;41.25;39.92;42.41;;
40465;Laerm;30489;48.982;8.394;2023-02-11T11:00:43;41.27;39.81;42.47;;
40465;Laerm;30489;48.982;8.394;2023-02-11T11:03:00;41.29;40.03;42.41;;
40465;Laerm;30489;48.982;8.394;2023-02-11T11:05:15;41.30;39.89;42.41;;
40465;Laerm;30489;48.982;8.394;2023-02-11T11:07:26;41.33;39.92;42.59;;
40465;Laerm;30489;48.982;8.394;2023-02-11T11:09:43;41.35;40.03;42.47;;
40465;Laerm;30489;48.982;8.394;2023-02-11T11:11:53;41.42;39.92;42.71;;
40465;Laerm;30489;48.982;8.394;2023-02-11T11:14:04;41.47;39.92;42.53;;
40465;Laerm;30489;48.982;8.394;2023-02-11T11:16:16;41.48;40.33;43.04;;
40465;Laerm;30489;48.982;8.394;2023-02-11T11:18:27;41.52;40.33;42.59;;
40465;Laerm;30489;48.982;8.394;2023-02-11T11:20:37;41.57;40.13;42.76;;
40465;Laerm;30489;48.982;8.394;2023-02-11T11:22:48;41.61;40.23;42.88;;
40465;Laerm;30489;48.982;8.394;2023-02-11T11:24:58;41.60;40.43;42.65;;
40465;Laerm;30489;48.982;8.394;2023-02-11T11:27:16;41.64;40.33;42.93;;
40465;Laerm;30489;48.982;8.394;2023-02-11T11:31:48;41.66;40.53;42.82;;
40465;Laerm;30489;48.982;8.394;2023-02-11T11:34:05;41.68;40.33;42.88;;
40465;Laerm;30489;48.982;8.394;2023-02-11T11:36:58;41.72;40.43;43.04;;
40465;Laerm;30489;48.982;8.394;2023-02-11T11:39:03;41.73;40.43;42.76;;
40465;Laerm;30489;48.982;8.394;2023-02-11T11:41:25;41.78;40.62;42.76;;
40465;Laerm;30489;48.982;8.394;2023-02-11T11:43:36;41.79;40.43;42.88;;
40465;Laerm;30489;48.982;8.394;2023-02-11T11:45:54;41.78;40.62;42.98;;
40465;Laerm;30489;48.982;8.394;2023-02-11T11:57:24;41.82;40.43;42.82;;
40465;Laerm;30489;48.982;8.394;2023-02-11T11:59:35;41.83;40.62;42.82;;
40465;Laerm;30489;48.982;8.394;2023-02-11T12:08:41;41.87;40.71;42.93;;
40465;Laerm;30489;48.982;8.394;2023-02-11T12:17:51;41.83;40.80;42.98;;
40465;Laerm;30489;48.982;8.394;2023-02-11T12:20:14;41.84;40.53;42.88;;
40465;Laerm;30489;48.982;8.394;2023-02-11T12:22:40;41.83;40.62;42.88;;
40465;Laerm;30489;48.982;8.394;2023-02-11T12:27:34;41.86;40.53;42.88;;
40465;Laerm;30489;48.982;8.394;2023-02-11T12:36:54;41.89;40.53;43.04;;
40465;Laerm;30489;48.982;8.394;2023-02-11T12:41:24;41.87;40.43;42.98;;
40465;Laerm;30489;48.982;8.394;2023-02-11T12:43:59;41.86;40.53;42.93;;
40465;Laerm;30489;48.982;8.394;2023-02-11T12:55:36;41.90;40.71;51.54;;
40465;Laerm;30489;48.982;8.394;2023-02-11T12:57:49;41.92;40.71;45.23;;
40465;Laerm;30489;48.982;8.394;2023-02-11T13:00:21;41.91;40.62;48.36;;
40465;Laerm;30489;48.982;8.394;2023-02-11T13:04:50;41.91;40.33;49.21;;
40465;Laerm;30489;48.982;8.394;2023-02-11T13:07:10;41.93;40.71;57.29;;
40465;Laerm;30489;48.982;8.394;2023-02-11T13:09:26;41.88;40.71;47.86;;
40465;Laerm;30489;48.982;8.394;2023-02-11T13:11:40;41.88;40.71;44.94;;
40465;Laerm;30489;48.982;8.394;2023-02-11T13:13:53;41.89;40.71;49.50;;
40465;Laerm;30489;48.982;8.394;2023-02-11T13:16:06;41.92;40.71;47.55;;
40465;Laerm;30489;48.982;8.394;2023-02-11T13:22:53;41.91;40.71;50.77;;
40465;Laerm;30489;48.982;8.394;2023-02-11T13:32:08;41.93;40.62;43.09;;
40465;Laerm;30489;48.982;8.394;2023-02-11T13:34:26;41.88;40.62;43.29;;
40465;Laerm;30489;48.982;8.394;2023-02-11T13:36:53;41.90;40.80;43.09;;
40465;Laerm;30489;48.982;8.394;2023-02-11T13:39:04;41.92;40.62;45.66;;
40465;Laerm;30489;48.982;8.394;2023-02-11T13:41:16;41.91;40.62;43.81;;
40465;Laerm;30489;48.982;8.394;2023-02-11T13:43:33;41.91;40.71;42.93;;
40465;Laerm;30489;48.982;8.394;2023-02-11T13:45:45;41.91;40.71;42.98;;
40465;Laerm;30489;48.982;8.394;2023-02-11T13:47:57;41.91;40.53;42.93;;
40465;Laerm;30489;48.982;8.394;2023-02-11T13:50:19;41.90;40.62;43.04;;
40465;Laerm;30489;48.982;8.394;2023-02-11T13:52:31;41.89;40.62;42.93;;
40465;Laerm;30489;48.982;8.394;2023-02-11T13:54:46;41.90;40.53;46.78;;
40465;Laerm;30489;48.982;8.394;2023-02-11T14:04:26;41.88;40.62;42.93;;
40465;Laerm;30489;48.982;8.394;2023-02-11T14:09:43;41.87;40.43;42.88;;
40465;Laerm;30489;48.982;8.394;2023-02-11T14:12:15;41.90;40.62;43.04;;
40465;Laerm;30489;48.982;8.394;2023-02-11T14:14:26;41.89;40.71;42.98;;